createdAt,value
2023-03-11T00:01:58.895Z,29.70
2023-03-11T00:13:59.318Z,32.40
2023-03-11T00:25:59.903Z,30.30
2023-03-11T00:38:00.241Z,29.90
2023-03-11T00:50:00.637Z,28.40
2023-03-11T01:02:01.090Z,32.80
2023-03-11T01:14:01.565Z,30.50
2023-03-11T01:26:02.001Z,36.00
2023-03-11T01:38:02.473Z,31.90
2023-03-11T01:50:03.093Z,24.60
2023-03-11T02:02:03.392Z,23.00
2023-03-11T02:14:03.827Z,23.00
2023-03-11T02:26:04.288Z,22.20
2023-03-11T02:38:04.805Z,19.80
2023-03-11T02:50:05.200Z,20.50
2023-03-11T03:02:05.618Z,18.90
2023-03-11T03:14:06.100Z,15.00
2023-03-11T03:26:06.508Z,10.20
2023-03-11T03:38:06.994Z,11.60
2023-03-11T03:50:07.483Z,1.40
2023-03-11T04:02:07.940Z,1.70
2023-03-11T04:14:08.354Z,1.10
2023-03-11T04:26:08.785Z,1.20
2023-03-11T04:38:09.297Z,1.00
2023-03-11T04:50:09.712Z,2.90
2023-03-11T05:02:12.789Z,3.10
2023-03-11T05:14:10.624Z,1.50
2023-03-11T05:26:11.035Z,2.00
2023-03-11T05:38:11.528Z,1.60
2023-03-11T05:50:11.977Z,1.60
2023-03-11T06:02:12.418Z,2.20
2023-03-11T06:14:12.907Z,1.30
2023-03-11T06:26:13.341Z,2.00
2023-03-11T06:38:13.746Z,2.10
2023-03-11T06:50:14.196Z,3.20
2023-03-11T07:02:14.718Z,2.30
2023-03-11T07:14:15.117Z,2.70
2023-03-11T07:26:15.582Z,1.20
2023-03-11T07:38:16.006Z,1.40
2023-03-11T07:50:16.525Z,1.70
2023-03-11T08:02:16.978Z,1.20
2023-03-11T08:14:17.400Z,1.50
2023-03-11T08:26:17.821Z,2.10
2023-03-11T08:38:18.300Z,3.40
2023-03-11T08:50:18.727Z,1.30
2023-03-11T09:02:19.227Z,2.00
2023-03-11T09:14:19.653Z,2.30
2023-03-11T09:26:20.157Z,1.30
2023-03-11T09:38:20.563Z,1.30
2023-03-11T09:50:21.011Z,1.30
2023-03-11T10:02:21.501Z,1.70
2023-03-11T10:14:21.927Z,1.10
2023-03-11T10:26:22.351Z,0.80
2023-03-11T10:38:22.813Z,1.10
2023-03-11T10:50:23.255Z,2.40
2023-03-11T11:02:23.724Z,0.90
2023-03-11T11:14:24.192Z,1.50
2023-03-11T11:26:24.637Z,1.80
2023-03-11T11:38:25.089Z,1.20
2023-03-11T11:50:25.531Z,1.90
2023-03-11T12:02:25.995Z,1.00
2023-03-11T12:14:26.429Z,1.60
2023-03-11T12:26:26.871Z,1.10
2023-03-11T12:38:27.393Z,2.60
2023-03-11T12:50:27.805Z,1.10
2023-03-11T13:02:28.293Z,1.70
2023-03-11T13:14:28.705Z,0.90
2023-03-11T13:26:29.199Z,2.00
2023-03-11T13:38:29.680Z,3.20
2023-03-11T13:50:30.090Z,2.70
2023-03-11T14:02:30.572Z,1.90
2023-03-11T14:14:31.035Z,1.50
2023-03-11T14:26:31.458Z,1.50
2023-03-11T14:38:31.888Z,2.40
2023-03-11T14:50:32.336Z,2.10
2023-03-11T15:02:32.814Z,1.30
2023-03-11T15:14:33.279Z,2.50
2023-03-11T15:26:33.723Z,2.30
2023-03-11T15:38:34.143Z,4.20
2023-03-11T15:50:46.615Z,11.30
2023-03-11T16:02:35.058Z,2.10
2023-03-11T16:14:35.539Z,2.20
2023-03-11T16:26:35.982Z,3.10
2023-03-11T16:38:36.510Z,2.50
2023-03-11T16:50:37.704Z,2.50
2023-03-11T17:02:37.367Z,4.30
2023-03-11T17:14:37.792Z,2.40
2023-03-11T17:26:38.289Z,8.10
2023-03-11T17:38:38.713Z,5.00
2023-03-11T17:50:39.217Z,13.00
2023-03-11T18:02:39.615Z,5.90
2023-03-11T18:14:40.088Z,5.50
2023-03-11T18:26:40.547Z,3.00
2023-03-11T18:38:40.995Z,7.70
2023-03-11T18:50:41.420Z,6.50
2023-03-11T19:02:41.890Z,7.30
2023-03-11T19:14:42.344Z,12.10
2023-03-11T19:26:45.714Z,4.80
2023-03-11T19:38:43.251Z,7.90
2023-03-11T19:50:43.732Z,7.60
2023-03-11T20:02:44.215Z,5.10
2023-03-11T20:14:44.567Z,5.60
2023-03-11T20:26:45.046Z,3.60
2023-03-11T20:38:45.556Z,4.60
2023-03-11T20:50:45.924Z,6.20
2023-03-11T21:02:46.604Z,2.10
2023-03-11T21:14:46.917Z,5.60
2023-03-11T21:26:47.570Z,6.40
2023-03-11T21:38:48.256Z,3.70
2023-03-11T21:50:48.251Z,4.10
2023-03-11T22:02:49.088Z,4.50
2023-03-11T22:14:49.227Z,2.50
2023-03-11T22:26:49.862Z,7.30
2023-03-11T22:38:50.106Z,4.90
2023-03-11T22:50:50.646Z,8.70
2023-03-11T23:02:51.074Z,21.10
2023-03-11T23:14:51.568Z,26.60
2023-03-11T23:26:52.202Z,8.00
2023-03-11T23:38:53.172Z,6.00
2023-03-11T23:50:53.545Z,13.30
